Time;durP1;ratioP1;P1;durP2;ratioP2;P2;SDS_P1;SDS_P2;PMS_P1;PMS_P2;Temp;Humidity;BMP_temperature;BMP_pressure;BME280_temperature;BME280_humidity;BME280_pressure;Samples;Min_cycle;Max_cycle;Signal;HPM_P1;HPM_P2
2022/03/22 00:00:33;;;;;;;12.90;6.82;;;;;;;;;;5025672;28;20075;-63
2022/03/22 00:02:59;;;;;;;12.15;6.70;;;;;;;;;;5023982;28;20116;-64
2022/03/22 00:05:25;;;;;;;13.35;6.90;;;;;;;;;;5020187;28;20112;-64
2022/03/22 00:07:51;;;;;;;14.10;6.30;;;;;;;;;;5023152;28;20140;-63
2022/03/22 00:10:18;;;;;;;14.45;6.57;;;;;;;;;;5014141;28;20080;-64
2022/03/22 00:12:44;;;;;;;8.52;6.32;;;;;;;;;;5017469;28;20034;-64
2022/03/22 00:15:11;;;;;;;7.82;5.70;;;;;;;;;;5021675;28;20029;-64
2022/03/22 00:17:37;;;;;;;12.25;6.70;;;;;;;;;;5019223;28;20112;-64
2022/03/22 00:20:10;;;;;;;10.73;6.20;;;;;;;;;;5019394;28;20044;-64
2022/03/22 00:22:37;;;;;;;10.70;6.20;;;;;;;;;;5018854;28;20120;-64
2022/03/22 00:25:04;;;;;;;15.00;5.40;;;;;;;;;;5019283;28;20037;-63
2022/03/22 00:27:50;;;;;;;10.05;6.22;;;;;;;;;;5017269;28;20449;-64
2022/03/22 00:30:18;;;;;;;9.13;6.25;;;;;;;;;;5017492;28;20049;-64
2022/03/22 00:32:43;;;;;;;10.48;5.82;;;;;;;;;;5018771;28;20029;-63
2022/03/22 00:35:10;;;;;;;10.60;6.35;;;;;;;;;;5021555;28;20096;-64
2022/03/22 00:37:42;;;;;;;15.50;6.18;;;;;;;;;;5020082;28;20022;-64
2022/03/22 00:40:18;;;;;;;9.77;6.13;;;;;;;;;;5016535;28;20037;-64
2022/03/22 00:42:46;;;;;;;12.77;5.90;;;;;;;;;;5013535;28;20038;-64
2022/03/22 00:45:16;;;;;;;13.35;6.35;;;;;;;;;;5013376;28;20029;-63
2022/03/22 00:47:46;;;;;;;9.30;6.53;;;;;;;;;;5019725;28;20049;-64
2022/03/22 00:50:13;;;;;;;7.18;5.68;;;;;;;;;;5023581;28;20037;-64
2022/03/22 00:52:40;;;;;;;11.85;6.32;;;;;;;;;;5017141;28;20490;-64
2022/03/22 00:55:07;;;;;;;9.88;5.80;;;;;;;;;;5019072;28;20083;-64
2022/03/22 00:57:34;;;;;;;11.15;6.07;;;;;;;;;;5021354;28;20025;-64
2022/03/22 01:00:06;;;;;;;8.02;5.70;;;;;;;;;;5012506;28;20044;-63
2022/03/22 01:02:36;;;;;;;9.45;6.03;;;;;;;;;;5014815;28;20108;-63
2022/03/22 01:05:07;;;;;;;8.65;6.20;;;;;;;;;;5016801;28;20025;-63
2022/03/22 01:07:34;;;;;;;14.20;6.35;;;;;;;;;;5017387;28;20033;-64
2022/03/22 01:10:08;;;;;;;10.82;6.43;;;;;;;;;;5019176;28;20385;-64
2022/03/22 01:12:35;;;;;;;10.43;6.43;;;;;;;;;;5017844;28;20025;-63
2022/03/22 01:15:04;;;;;;;9.73;6.38;;;;;;;;;;5015427;28;20491;-64
2022/03/22 01:17:31;;;;;;;8.55;5.75;;;;;;;;;;5019351;28;20035;-63
2022/03/22 01:19:58;;;;;;;12.90;6.32;;;;;;;;;;5020288;28;20147;-63
2022/03/22 01:22:25;;;;;;;10.48;6.07;;;;;;;;;;5015305;28;20368;-64
2022/03/22 01:24:52;;;;;;;9.98;6.32;;;;;;;;;;5018333;28;20021;-64
2022/03/22 01:27:22;;;;;;;13.90;7.13;;;;;;;;;;5017713;28;20155;-63
2022/03/22 01:29:48;;;;;;;9.23;5.93;;;;;;;;;;5020613;28;20104;-62
2022/03/22 01:32:15;;;;;;;14.57;6.00;;;;;;;;;;5015016;28;20406;-63
2022/03/22 01:34:42;;;;;;;11.18;6.22;;;;;;;;;;5015396;28;20040;-63
2022/03/22 01:37:09;;;;;;;10.02;6.43;;;;;;;;;;5013356;28;20049;-62
2022/03/22 01:39:35;;;;;;;13.93;7.00;;;;;;;;;;5013005;28;20132;-63
2022/03/22 01:42:01;;;;;;;8.68;6.18;;;;;;;;;;5013569;28;20127;-63
2022/03/22 01:44:28;;;;;;;12.35;6.43;;;;;;;;;;5014534;28;20037;-62
2022/03/22 01:47:00;;;;;;;12.52;7.03;;;;;;;;;;5024813;28;20601;-63
2022/03/22 01:49:25;;;;;;;12.90;6.72;;;;;;;;;;5015881;28;20033;-63
2022/03/22 01:51:52;;;;;;;11.88;6.32;;;;;;;;;;5020676;28;20426;-63
2022/03/22 01:54:18;;;;;;;13.18;6.40;;;;;;;;;;5012538;28;20490;-63
2022/03/22 01:56:44;;;;;;;11.75;7.05;;;;;;;;;;5012368;28;20042;-63
2022/03/22 01:59:10;;;;;;;10.55;6.43;;;;;;;;;;5018345;28;20398;-63
2022/03/22 02:07:06;;;;;;;10.55;6.65;;;;;;;;;;5019663;28;20025;-63
2022/03/22 02:09:33;;;;;;;11.75;7.10;;;;;;;;;;5019633;28;20029;-63
2022/03/22 02:11:59;;;;;;;9.38;6.30;;;;;;;;;;5013280;28;20405;-63
2022/03/22 02:14:26;;;;;;;10.10;6.07;;;;;;;;;;5017839;28;20033;-63
2022/03/22 02:16:52;;;;;;;9.18;6.82;;;;;;;;;;5018801;28;20393;-63
2022/03/22 02:19:18;;;;;;;15.65;6.45;;;;;;;;;;5014274;28;20087;-63
2022/03/22 02:21:45;;;;;;;10.77;6.65;;;;;;;;;;5022129;28;20536;-63
2022/03/22 02:24:11;;;;;;;11.20;6.00;;;;;;;;;;5014830;28;20116;-63
2022/03/22 02:26:37;;;;;;;11.52;7.00;;;;;;;;;;5020693;28;20026;-63
2022/03/22 02:29:03;;;;;;;14.60;5.65;;;;;;;;;;5019018;28;20472;-63
2022/03/22 02:31:30;;;;;;;15.48;6.78;;;;;;;;;;5014922;28;20057;-63
2022/03/22 02:33:57;;;;;;;9.23;6.15;;;;;;;;;;5013363;28;20061;-63
2022/03/22 02:36:23;;;;;;;9.15;5.95;;;;;;;;;;5015026;28;20041;-63
2022/03/22 02:38:50;;;;;;;10.10;6.30;;;;;;;;;;5018177;28;20505;-63
2022/03/22 02:41:18;;;;;;;7.70;6.18;;;;;;;;;;5014281;28;20030;-63
2022/03/22 02:43:48;;;;;;;10.50;6.47;;;;;;;;;;5017013;28;20045;-63
2022/03/22 02:46:14;;;;;;;10.02;6.20;;;;;;;;;;5019682;28;20029;-63
2022/03/22 02:48:41;;;;;;;7.57;6.30;;;;;;;;;;5013595;28;20045;-63
2022/03/22 02:51:08;;;;;;;12.43;6.57;;;;;;;;;;5020286;28;20041;-62
2022/03/22 02:53:33;;;;;;;12.93;6.43;;;;;;;;;;5014885;28;20050;-63
2022/03/22 02:55:59;;;;;;;9.48;6.32;;;;;;;;;;5028909;28;20033;-63
2022/03/22 02:58:26;;;;;;;9.57;6.20;;;;;;;;;;5017790;28;20026;-63
2022/03/22 03:00:51;;;;;;;8.65;6.40;;;;;;;;;;5026828;28;20490;-63
2022/03/22 03:03:21;;;;;;;10.82;5.90;;;;;;;;;;5019663;28;20049;-63
2022/03/22 03:05:49;;;;;;;11.32;6.28;;;;;;;;;;5022958;28;20516;-61
2022/03/22 03:08:15;;;;;;;10.35;6.45;;;;;;;;;;5022521;28;20047;-63
2022/03/22 03:10:42;;;;;;;8.15;6.05;;;;;;;;;;5013861;28;20037;-63
2022/03/22 03:13:09;;;;;;;10.82;6.43;;;;;;;;;;5019470;28;20030;-63
2022/03/22 03:15:34;;;;;;;6.72;5.97;;;;;;;;;;5019057;28;20136;-63
2022/03/22 03:18:01;;;;;;;7.90;6.47;;;;;;;;;;5023439;28;20038;-64
2022/03/22 03:20:27;;;;;;;8.77;6.60;;;;;;;;;;5016138;28;20030;-63
2022/03/22 03:22:53;;;;;;;11.00;6.30;;;;;;;;;;5019471;28;20032;-63
2022/03/22 03:25:18;;;;;;;9.68;6.68;;;;;;;;;;5018928;28;20060;-63
2022/03/22 03:27:44;;;;;;;9.95;6.30;;;;;;;;;;5022002;28;20033;-63
2022/03/22 03:30:11;;;;;;;8.32;6.88;;;;;;;;;;5018839;28;20418;-63
2022/03/22 03:32:37;;;;;;;10.68;6.40;;;;;;;;;;5020946;28;20056;-63
2022/03/22 03:35:04;;;;;;;8.80;6.72;;;;;;;;;;5021744;28;20064;-63
2022/03/22 03:37:34;;;;;;;9.38;6.53;;;;;;;;;;5018702;28;20029;-63
2022/03/22 03:40:00;;;;;;;9.07;6.47;;;;;;;;;;5019488;28;20483;-63
2022/03/22 03:42:28;;;;;;;13.13;6.22;;;;;;;;;;5017017;28;20116;-63
2022/03/22 03:47:39;;;;;;;6.55;5.70;;;;;;;;;;5021337;28;20017;-63
2022/03/22 03:50:06;;;;;;;9.90;6.57;;;;;;;;;;5015715;28;20040;-63
2022/03/22 03:52:34;;;;;;;13.13;6.70;;;;;;;;;;5014994;28;20060;-63
2022/03/22 03:55:02;;;;;;;9.10;6.25;;;;;;;;;;5022147;28;20175;-63
2022/03/22 03:57:28;;;;;;;8.15;5.93;;;;;;;;;;5017928;28;20052;-63
2022/03/22 03:59:55;;;;;;;9.73;6.30;;;;;;;;;;5016843;28;20040;-63
2022/03/22 04:02:22;;;;;;;14.90;6.88;;;;;;;;;;5026732;28;20113;-63
2022/03/22 04:04:53;;;;;;;11.48;6.55;;;;;;;;;;5016774;28;20030;-63
2022/03/22 04:07:22;;;;;;;8.93;6.28;;;;;;;;;;5020384;28;20487;-63
2022/03/22 04:09:48;;;;;;;11.35;6.72;;;;;;;;;;5021404;28;20470;-63
2022/03/22 04:12:14;;;;;;;7.90;6.07;;;;;;;;;;5026078;28;20095;-63
2022/03/22 04:14:59;;;;;;;6.72;5.72;;;;;;;;;;5012225;28;20045;-63
2022/03/22 04:17:45;;;;;;;10.27;6.20;;;;;;;;;;5020950;28;20068;-63
2022/03/22 04:20:30;;;;;;;8.52;6.43;;;;;;;;;;5019293;28;20038;-63
2022/03/22 04:23:16;;;;;;;10.20;6.53;;;;;;;;;;5018706;28;20495;-63
2022/03/22 04:26:01;;;;;;;12.38;6.65;;;;;;;;;;5022095;28;20396;-63
2022/03/22 04:34:53;;;;;;;10.75;6.78;;;;;;;;;;5020748;28;20036;-63
2022/03/22 04:37:38;;;;;;;10.85;6.57;;;;;;;;;;5017486;28;20108;-64
2022/03/22 04:40:22;;;;;;;10.20;6.25;;;;;;;;;;5017781;28;20048;-63
2022/03/22 04:43:06;;;;;;;11.43;6.38;;;;;;;;;;5023887;28;20508;-63
2022/03/22 04:45:50;;;;;;;9.57;6.85;;;;;;;;;;5021624;28;20390;-63
2022/03/22 04:48:36;;;;;;;11.18;6.70;;;;;;;;;;5013668;28;20107;-63
2022/03/22 04:57:12;;;;;;;6.55;5.82;;;;;;;;;;5013427;28;20045;-63
2022/03/22 04:59:38;;;;;;;10.57;7.13;;;;;;;;;;5020084;28;20033;-63
2022/03/22 05:02:04;;;;;;;10.60;6.80;;;;;;;;;;5018997;28;20068;-63
2022/03/22 05:04:29;;;;;;;11.27;6.40;;;;;;;;;;5019782;28;20037;-63
2022/03/22 05:06:55;;;;;;;16.20;6.90;;;;;;;;;;5017158;28;20053;-63
2022/03/22 05:09:22;;;;;;;13.57;6.45;;;;;;;;;;5019203;28;20037;-63
2022/03/22 05:11:48;;;;;;;10.43;7.18;;;;;;;;;;5011926;28;20059;-63
2022/03/22 05:14:14;;;;;;;10.10;6.90;;;;;;;;;;5020333;28;20065;-63
2022/03/22 05:16:39;;;;;;;10.05;7.22;;;;;;;;;;5017033;28;20048;-63
2022/03/22 05:19:05;;;;;;;9.85;6.65;;;;;;;;;;5018062;28;20033;-63
2022/03/22 05:21:31;;;;;;;10.48;7.07;;;;;;;;;;5020844;28;20030;-63
2022/03/22 05:23:57;;;;;;;9.55;6.93;;;;;;;;;;5012300;28;20053;-63
2022/03/22 05:26:25;;;;;;;10.32;6.78;;;;;;;;;;5017242;28;20058;-63
2022/03/22 05:28:51;;;;;;;12.15;6.50;;;;;;;;;;5022365;28;20078;-63
2022/03/22 05:31:17;;;;;;;8.18;6.32;;;;;;;;;;5017595;28;20025;-63
2022/03/22 05:33:43;;;;;;;12.10;7.10;;;;;;;;;;5015795;28;20038;-63
2022/03/22 05:36:09;;;;;;;9.07;7.30;;;;;;;;;;5015582;28;20046;-62
2022/03/22 05:38:35;;;;;;;9.50;7.05;;;;;;;;;;5018895;28;20041;-63
2022/03/22 05:41:02;;;;;;;10.18;7.05;;;;;;;;;;5017520;28;20387;-63
2022/03/22 05:43:27;;;;;;;9.98;7.20;;;;;;;;;;5023367;28;20032;-63
2022/03/22 05:45:53;;;;;;;8.07;7.00;;;;;;;;;;5019561;28;20018;-63
2022/03/22 05:48:19;;;;;;;11.18;7.40;;;;;;;;;;5019228;28;20037;-63
2022/03/22 05:50:45;;;;;;;10.10;6.85;;;;;;;;;;5016837;28;20061;-63
2022/03/22 05:53:11;;;;;;;15.10;7.05;;;;;;;;;;5015965;28;20132;-62
2022/03/22 05:55:37;;;;;;;10.48;7.80;;;;;;;;;;5017116;28;20037;-63
2022/03/22 05:58:04;;;;;;;11.48;7.30;;;;;;;;;;5020032;28;20055;-63
2022/03/22 06:00:29;;;;;;;19.25;7.88;;;;;;;;;;5012808;28;20025;-62
2022/03/22 06:02:55;;;;;;;9.55;7.63;;;;;;;;;;5016031;28;20555;-63
2022/03/22 06:05:21;;;;;;;11.23;7.70;;;;;;;;;;5014421;28;20026;-63
2022/03/22 06:07:47;;;;;;;10.00;7.22;;;;;;;;;;5014820;28;20524;-62
2022/03/22 06:10:14;;;;;;;14.73;7.85;;;;;;;;;;5020001;28;20494;-63
2022/03/22 06:12:41;;;;;;;16.70;8.68;;;;;;;;;;5010780;28;20040;-63
2022/03/22 06:15:29;;;;;;;15.57;8.00;;;;;;;;;;5012367;28;20044;-62
2022/03/22 06:17:58;;;;;;;14.75;8.43;;;;;;;;;;5016988;28;20045;-63
2022/03/22 06:20:28;;;;;;;13.43;7.90;;;;;;;;;;5015149;28;21704;-63
2022/03/22 06:22:55;;;;;;;10.43;7.80;;;;;;;;;;5017310;28;20263;-62
2022/03/22 06:25:21;;;;;;;15.93;7.68;;;;;;;;;;5013192;28;20486;-62
2022/03/22 06:27:49;;;;;;;10.93;7.50;;;;;;;;;;5018049;28;20026;-62
2022/03/22 06:30:17;;;;;;;13.60;8.52;;;;;;;;;;5018272;28;20497;-62
2022/03/22 06:32:47;;;;;;;12.23;9.00;;;;;;;;;;5022265;28;20034;-62
2022/03/22 06:35:19;;;;;;;12.57;8.57;;;;;;;;;;5022720;28;20086;-62
2022/03/22 06:37:46;;;;;;;11.98;9.07;;;;;;;;;;5019486;28;20481;-62
2022/03/22 06:40:13;;;;;;;15.75;9.25;;;;;;;;;;5019823;28;20170;-62
2022/03/22 06:42:40;;;;;;;16.15;9.35;;;;;;;;;;5020994;28;20033;-62
2022/03/22 06:45:07;;;;;;;18.33;9.15;;;;;;;;;;5018964;28;20518;-62
2022/03/22 06:47:33;;;;;;;12.60;8.60;;;;;;;;;;5015837;28;20109;-62
2022/03/22 06:50:01;;;;;;;12.70;8.63;;;;;;;;;;5016837;28;20038;-62
2022/03/22 06:52:29;;;;;;;14.05;8.88;;;;;;;;;;5018736;28;20064;-62
2022/03/22 06:54:55;;;;;;;11.77;8.65;;;;;;;;;;5018630;28;20513;-62
2022/03/22 06:57:21;;;;;;;15.95;9.45;;;;;;;;;;5026212;28;20378;-62
2022/03/22 06:59:47;;;;;;;14.13;8.82;;;;;;;;;;5017765;28;20042;-62
2022/03/22 07:02:12;;;;;;;16.02;9.30;;;;;;;;;;5022046;28;20040;-62
2022/03/22 07:04:39;;;;;;;16.27;8.75;;;;;;;;;;5017881;28;20675;-62
2022/03/22 07:07:04;;;;;;;20.27;9.57;;;;;;;;;;5020287;28;20120;-62
2022/03/22 07:09:30;;;;;;;15.45;9.43;;;;;;;;;;5017993;28;20160;-62
2022/03/22 07:11:56;;;;;;;14.00;9.60;;;;;;;;;;5017840;28;20054;-62
2022/03/22 07:14:24;;;;;;;22.23;9.38;;;;;;;;;;5015789;28;20040;-63
2022/03/22 07:16:51;;;;;;;14.43;8.90;;;;;;;;;;5020681;28;20030;-62
2022/03/22 07:19:18;;;;;;;18.10;9.38;;;;;;;;;;5020840;28;20425;-62
2022/03/22 07:21:44;;;;;;;12.15;9.20;;;;;;;;;;5023720;28;20131;-62
2022/03/22 07:24:11;;;;;;;11.38;8.75;;;;;;;;;;5017716;28;20025;-62
2022/03/22 07:26:38;;;;;;;14.98;8.57;;;;;;;;;;5020790;28;20033;-62
2022/03/22 07:29:04;;;;;;;14.98;9.27;;;;;;;;;;5026800;28;20033;-62
2022/03/22 07:31:30;;;;;;;11.20;8.57;;;;;;;;;;5020265;28;20049;-62
2022/03/22 07:33:56;;;;;;;16.48;9.15;;;;;;;;;;5016947;28;20044;-63
2022/03/22 07:36:23;;;;;;;14.30;8.80;;;;;;;;;;5018850;28;20029;-63
2022/03/22 07:38:49;;;;;;;14.13;8.52;;;;;;;;;;5012993;28;20035;-62
2022/03/22 07:41:14;;;;;;;13.18;8.93;;;;;;;;;;5023650;28;20025;-63
2022/03/22 07:43:41;;;;;;;12.15;8.63;;;;;;;;;;5024455;28;20021;-63
2022/03/22 07:46:07;;;;;;;13.77;9.48;;;;;;;;;;5022169;28;20091;-62
2022/03/22 07:48:33;;;;;;;16.08;10.30;;;;;;;;;;5018451;28;20022;-63
2022/03/22 07:53:43;;;;;;;17.92;9.30;;;;;;;;;;5019819;28;20092;-63
2022/03/22 07:56:10;;;;;;;20.52;8.77;;;;;;;;;;5022036;28;20030;-62
2022/03/22 07:58:36;;;;;;;15.95;8.52;;;;;;;;;;5020507;28;20514;-63
2022/03/22 08:01:02;;;;;;;11.75;8.35;;;;;;;;;;5015890;28;20034;-63
2022/03/22 08:03:27;;;;;;;17.50;9.15;;;;;;;;;;5017053;28;20037;-63
2022/03/22 08:05:53;;;;;;;14.65;9.10;;;;;;;;;;5016259;28;20032;-62
2022/03/22 08:08:20;;;;;;;12.52;8.25;;;;;;;;;;5022553;28;20032;-63
2022/03/22 08:10:46;;;;;;;19.80;9.02;;;;;;;;;;5021797;28;20034;-62
2022/03/22 08:13:13;;;;;;;10.93;8.43;;;;;;;;;;5020446;28;20055;-62
2022/03/22 08:15:39;;;;;;;21.42;8.57;;;;;;;;;;5017466;28;20025;-62
2022/03/22 08:18:05;;;;;;;11.50;8.80;;;;;;;;;;5014200;28;20597;-62
2022/03/22 08:20:32;;;;;;;17.63;9.50;;;;;;;;;;5022579;28;20033;-62
2022/03/22 08:23:00;;;;;;;12.98;8.57;;;;;;;;;;5018662;28;20030;-63
2022/03/22 08:25:31;;;;;;;13.52;8.23;;;;;;;;;;5014526;28;20073;-63
2022/03/22 08:27:59;;;;;;;18.47;8.63;;;;;;;;;;5023357;28;20026;-63
2022/03/22 08:30:26;;;;;;;13.95;8.55;;;;;;;;;;5017104;28;20105;-63
2022/03/22 08:32:54;;;;;;;11.07;7.90;;;;;;;;;;5015305;28;20033;-63
2022/03/22 08:35:21;;;;;;;12.82;7.70;;;;;;;;;;5015691;28;20163;-62
2022/03/22 08:37:47;;;;;;;12.38;8.13;;;;;;;;;;5019429;28;20034;-62
2022/03/22 08:40:14;;;;;;;10.70;7.93;;;;;;;;;;5024331;28;20056;-63
2022/03/22 08:42:44;;;;;;;11.23;8.13;;;;;;;;;;5017234;28;20052;-63
2022/03/22 08:45:12;;;;;;;10.93;7.55;;;;;;;;;;5020580;28;20063;-62
2022/03/22 08:47:40;;;;;;;15.75;8.35;;;;;;;;;;5019313;28;20033;-63
2022/03/22 08:50:11;;;;;;;13.15;7.40;;;;;;;;;;5020737;28;20434;-63
2022/03/22 08:52:41;;;;;;;11.15;7.35;;;;;;;;;;5018241;28;20077;-64
2022/03/22 08:55:09;;;;;;;14.30;7.70;;;;;;;;;;5017874;28;20171;-63
2022/03/22 08:57:36;;;;;;;10.55;7.05;;;;;;;;;;5018037;28;20018;-64
2022/03/22 09:00:09;;;;;;;11.82;7.43;;;;;;;;;;5015986;28;20375;-64
2022/03/22 09:02:40;;;;;;;11.57;7.20;;;;;;;;;;5017408;28;20124;-64
2022/03/22 09:07:56;;;;;;;20.30;7.80;;;;;;;;;;5025027;28;20087;-63
2022/03/22 09:10:22;;;;;;;9.90;7.35;;;;;;;;;;5016341;28;20022;-63
2022/03/22 09:12:48;;;;;;;18.58;7.75;;;;;;;;;;5017268;28;20034;-64
2022/03/22 09:15:26;;;;;;;10.30;7.10;;;;;;;;;;5014338;28;20052;-64
2022/03/22 09:17:56;;;;;;;11.25;7.50;;;;;;;;;;5016884;28;20018;-63
2022/03/22 09:20:23;;;;;;;12.07;6.97;;;;;;;;;;5016943;28;20395;-64
2022/03/22 09:22:51;;;;;;;10.93;7.57;;;;;;;;;;5018472;28;20128;-63
2022/03/22 09:25:22;;;;;;;9.48;7.10;;;;;;;;;;5018794;28;20030;-64
2022/03/22 09:27:49;;;;;;;8.80;6.88;;;;;;;;;;5017245;28;20033;-64
2022/03/22 09:30:14;;;;;;;10.40;7.43;;;;;;;;;;5015138;28;20033;-64
2022/03/22 09:32:42;;;;;;;12.60;7.85;;;;;;;;;;5018720;28;20157;-64
2022/03/22 09:35:10;;;;;;;10.45;7.70;;;;;;;;;;5018193;28;20034;-62
2022/03/22 09:37:37;;;;;;;13.00;7.40;;;;;;;;;;5015770;28;20041;-64
2022/03/22 09:40:04;;;;;;;11.20;7.38;;;;;;;;;;5015571;28;20505;-64
2022/03/22 09:42:31;;;;;;;11.85;7.60;;;;;;;;;;5018366;28;20041;-63
2022/03/22 09:45:01;;;;;;;8.57;6.80;;;;;;;;;;5011689;28;20025;-64
2022/03/22 09:47:28;;;;;;;11.98;7.18;;;;;;;;;;5016130;28;20474;-64
2022/03/22 09:49:55;;;;;;;9.32;6.97;;;;;;;;;;5013691;28;20040;-64
2022/03/22 09:52:22;;;;;;;10.45;7.75;;;;;;;;;;5018049;28;20065;-64
2022/03/22 09:54:48;;;;;;;11.93;7.45;;;;;;;;;;5015906;28;20029;-64
2022/03/22 09:57:14;;;;;;;12.00;7.15;;;;;;;;;;5014311;28;20040;-64
2022/03/22 09:59:40;;;;;;;10.85;7.13;;;;;;;;;;5011702;28;20057;-64
2022/03/22 10:02:06;;;;;;;15.60;7.53;;;;;;;;;;5017154;28;20025;-64
2022/03/22 10:04:37;;;;;;;8.55;6.85;;;;;;;;;;5014949;28;20056;-64
2022/03/22 10:07:05;;;;;;;14.65;7.05;;;;;;;;;;5015007;28;20403;-63
2022/03/22 10:09:36;;;;;;;8.65;7.20;;;;;;;;;;5010817;28;20029;-64
2022/03/22 10:12:03;;;;;;;12.52;7.55;;;;;;;;;;5013106;28;20041;-63
2022/03/22 10:14:32;;;;;;;14.55;7.38;;;;;;;;;;5019983;28;20176;-63
2022/03/22 10:16:58;;;;;;;15.43;7.22;;;;;;;;;;5021630;28;20437;-64
2022/03/22 10:19:25;;;;;;;11.27;7.57;;;;;;;;;;5020909;28;20034;-64
2022/03/22 10:21:53;;;;;;;9.05;6.85;;;;;;;;;;5018115;28;20049;-63
2022/03/22 10:24:19;;;;;;;9.98;6.60;;;;;;;;;;5016969;28;20398;-64
2022/03/22 10:26:46;;;;;;;8.13;7.25;;;;;;;;;;5017815;28;20030;-64
2022/03/22 10:29:14;;;;;;;9.57;6.95;;;;;;;;;;5018477;28;20036;-63
2022/03/22 10:31:40;;;;;;;10.20;6.90;;;;;;;;;;5018630;28;20091;-64
2022/03/22 10:34:08;;;;;;;8.07;7.00;;;;;;;;;;5012133;28;20034;-64
2022/03/22 10:36:36;;;;;;;15.43;6.95;;;;;;;;;;5021244;28;20034;-63
2022/03/22 10:39:05;;;;;;;7.00;6.35;;;;;;;;;;5013180;28;20387;-64
2022/03/22 10:41:37;;;;;;;11.80;6.82;;;;;;;;;;5020285;28;20391;-63
2022/03/22 10:44:07;;;;;;;12.73;6.70;;;;;;;;;;5016194;28;20045;-64
2022/03/22 10:46:34;;;;;;;10.50;6.30;;;;;;;;;;5015526;28;20037;-64
2022/03/22 10:49:06;;;;;;;7.70;6.65;;;;;;;;;;5018755;28;20034;-64
2022/03/22 10:51:36;;;;;;;11.03;7.03;;;;;;;;;;5014078;28;20555;-63
2022/03/22 10:54:03;;;;;;;8.70;6.10;;;;;;;;;;5013867;28;20307;-64
2022/03/22 10:56:30;;;;;;;14.00;7.30;;;;;;;;;;5013284;28;20030;-62
2022/03/22 10:58:57;;;;;;;15.93;6.07;;;;;;;;;;5010971;28;20087;-64
2022/03/22 11:01:24;;;;;;;10.80;6.18;;;;;;;;;;5014994;28;20030;-64
2022/03/22 11:03:56;;;;;;;9.75;5.88;;;;;;;;;;5016252;28;20025;-63
2022/03/22 11:06:25;;;;;;;17.60;6.30;;;;;;;;;;5012543;28;20120;-64
2022/03/22 11:08:51;;;;;;;9.77;5.90;;;;;;;;;;5011227;28;20109;-63
2022/03/22 11:11:17;;;;;;;13.27;5.82;;;;;;;;;;5024078;28;20140;-63
2022/03/22 11:13:43;;;;;;;7.40;5.40;;;;;;;;;;5020128;28;20038;-63
2022/03/22 11:16:10;;;;;;;10.18;5.40;;;;;;;;;;5021752;28;20059;-63
2022/03/22 11:18:37;;;;;;;8.32;5.70;;;;;;;;;;5017154;28;20026;-63
2022/03/22 11:21:04;;;;;;;11.57;5.75;;;;;;;;;;5013930;28;20116;-63
2022/03/22 11:23:33;;;;;;;13.70;6.13;;;;;;;;;;5025868;28;20036;-62
2022/03/22 11:26:10;;;;;;;9.40;5.70;;;;;;;;;;5029257;28;20033;-63
2022/03/22 11:28:38;;;;;;;7.30;5.30;;;;;;;;;;5021571;28;20650;-62
2022/03/22 11:31:06;;;;;;;7.20;5.25;;;;;;;;;;5023096;28;20034;-63
2022/03/22 11:36:20;;;;;;;13.40;5.22;;;;;;;;;;5016482;28;20060;-63
2022/03/22 11:38:54;;;;;;;9.75;5.38;;;;;;;;;;5017597;28;20029;-63
2022/03/22 11:44:21;;;;;;;6.78;5.15;;;;;;;;;;5017510;28;20088;-63
2022/03/22 11:47:00;;;;;;;6.35;5.00;;;;;;;;;;5018250;28;20026;-63
2022/03/22 11:49:26;;;;;;;12.70;5.75;;;;;;;;;;5021338;28;20032;-63
2022/03/22 11:52:12;;;;;;;11.45;5.13;;;;;;;;;;5016470;28;20025;-62
2022/03/22 11:54:39;;;;;;;8.70;5.32;;;;;;;;;;5023931;28;20064;-63
2022/03/22 11:57:07;;;;;;;6.45;5.15;;;;;;;;;;5015473;28;20077;-63
2022/03/22 11:59:43;;;;;;;6.75;4.72;;;;;;;;;;5018073;28;20056;-64
2022/03/22 12:02:17;;;;;;;9.25;4.80;;;;;;;;;;5021387;28;20112;-63
2022/03/22 12:04:54;;;;;;;5.20;4.50;;;;;;;;;;5020422;28;20037;-64
2022/03/22 12:07:23;;;;;;;12.55;5.43;;;;;;;;;;5015677;28;20037;-64
2022/03/22 12:09:48;;;;;;;8.10;5.10;;;;;;;;;;5017715;28;20132;-61
2022/03/22 12:12:15;;;;;;;9.55;4.43;;;;;;;;;;5013702;28;20804;-63
2022/03/22 12:14:45;;;;;;;9.20;4.53;;;;;;;;;;5015109;28;20063;-64
2022/03/22 12:17:11;;;;;;;8.48;4.47;;;;;;;;;;5020849;28;20041;-63
2022/03/22 12:19:37;;;;;;;6.03;4.55;;;;;;;;;;5020592;28;20053;-63
2022/03/22 12:22:06;;;;;;;7.30;4.28;;;;;;;;;;5018028;28;20468;-63
2022/03/22 12:24:35;;;;;;;6.13;4.00;;;;;;;;;;5017760;28;20033;-63
2022/03/22 12:27:04;;;;;;;5.75;4.38;;;;;;;;;;5018184;28;20034;-63
2022/03/22 12:29:30;;;;;;;6.75;4.28;;;;;;;;;;5012871;28;20034;-63
2022/03/22 12:32:06;;;;;;;7.93;4.55;;;;;;;;;;5019757;28;20035;-62
2022/03/22 12:34:36;;;;;;;6.03;3.95;;;;;;;;;;5018034;28;20399;-63
2022/03/22 12:37:03;;;;;;;6.50;4.47;;;;;;;;;;5012602;28;20040;-63
2022/03/22 12:39:29;;;;;;;7.80;4.45;;;;;;;;;;5019215;28;20037;-63
2022/03/22 12:41:57;;;;;;;10.13;4.18;;;;;;;;;;5022152;28;20038;-63
2022/03/22 12:44:23;;;;;;;8.18;4.03;;;;;;;;;;5020021;28;20041;-63
2022/03/22 12:46:49;;;;;;;12.65;5.68;;;;;;;;;;5023601;28;20037;-63
2022/03/22 12:49:14;;;;;;;10.65;4.70;;;;;;;;;;5018317;28;20030;-63
2022/03/22 12:51:41;;;;;;;6.43;3.95;;;;;;;;;;5017385;28;20029;-63
2022/03/22 12:54:08;;;;;;;11.65;4.18;;;;;;;;;;5016368;28;20136;-63
2022/03/22 12:56:34;;;;;;;8.82;4.30;;;;;;;;;;5022383;28;20029;-63
2022/03/22 12:59:01;;;;;;;12.13;4.20;;;;;;;;;;5018652;28;20025;-63
2022/03/22 13:01:38;;;;;;;7.88;4.28;;;;;;;;;;5017196;28;20113;-63
2022/03/22 13:04:04;;;;;;;9.10;4.05;;;;;;;;;;5023199;28;20033;-63
2022/03/22 13:06:30;;;;;;;7.63;3.75;;;;;;;;;;5013328;28;20061;-62
2022/03/22 13:11:41;;;;;;;7.82;3.95;;;;;;;;;;5013561;28;20511;-62
2022/03/22 13:16:56;;;;;;;5.53;4.00;;;;;;;;;;5020231;28;20041;-63
2022/03/22 13:19:22;;;;;;;7.28;3.72;;;;;;;;;;5017655;28;20360;-63
2022/03/22 13:21:47;;;;;;;8.90;3.63;;;;;;;;;;5015052;28;20537;-63
2022/03/22 13:24:22;;;;;;;10.45;4.40;;;;;;;;;;5015401;28;20135;-63
2022/03/22 13:26:57;;;;;;;12.13;3.92;;;;;;;;;;5022282;28;20025;-63
2022/03/22 13:29:24;;;;;;;7.07;3.67;;;;;;;;;;5015526;28;20475;-63
2022/03/22 13:31:56;;;;;;;9.57;3.85;;;;;;;;;;5017892;28;20025;-62
2022/03/22 13:34:26;;;;;;;8.13;4.05;;;;;;;;;;5020900;28;20037;-63
2022/03/22 13:37:20;;;;;;;8.60;4.13;;;;;;;;;;5016013;28;20033;-63
2022/03/22 13:39:50;;;;;;;7.35;4.10;;;;;;;;;;5021855;28;20108;-63
2022/03/22 13:42:21;;;;;;;14.52;4.05;;;;;;;;;;5016695;28;20058;-63
2022/03/22 13:44:59;;;;;;;10.63;4.20;;;;;;;;;;5010685;28;20034;-63
2022/03/22 13:47:33;;;;;;;9.73;3.80;;;;;;;;;;5021019;28;20026;-63
2022/03/22 13:50:10;;;;;;;8.25;4.10;;;;;;;;;;5021670;28;20042;-63
2022/03/22 13:52:36;;;;;;;15.70;4.22;;;;;;;;;;5014922;28;20042;-63
2022/03/22 13:55:19;;;;;;;8.05;4.10;;;;;;;;;;5012673;28;20552;-63
2022/03/22 13:57:54;;;;;;;14.05;4.22;;;;;;;;;;5016330;28;20471;-63
2022/03/22 14:00:22;;;;;;;12.73;4.05;;;;;;;;;;5012102;28;20045;-62
2022/03/22 14:02:48;;;;;;;12.73;4.18;;;;;;;;;;5016840;28;20607;-63
2022/03/22 14:05:14;;;;;;;12.65;5.32;;;;;;;;;;5017500;28;20471;-63
2022/03/22 14:07:56;;;;;;;7.90;3.60;;;;;;;;;;5016689;28;20029;-63
2022/03/22 14:10:23;;;;;;;8.48;4.32;;;;;;;;;;5014808;28;20120;-63
2022/03/22 14:12:49;;;;;;;10.18;4.45;;;;;;;;;;5015344;28;20052;-62
2022/03/22 14:15:16;;;;;;;7.55;4.15;;;;;;;;;;5023572;28;20084;-62
2022/03/22 14:17:44;;;;;;;6.55;4.53;;;;;;;;;;5014677;28;20040;-63
2022/03/22 14:20:12;;;;;;;15.90;4.93;;;;;;;;;;5017680;28;20033;-63
2022/03/22 14:22:41;;;;;;;12.60;4.32;;;;;;;;;;5016674;28;20487;-63
2022/03/22 14:25:09;;;;;;;11.05;4.15;;;;;;;;;;5020310;28;20037;-63
2022/03/22 14:27:36;;;;;;;10.63;4.60;;;;;;;;;;5013517;28;20176;-63
2022/03/22 14:30:07;;;;;;;9.82;4.32;;;;;;;;;;5015884;28;20042;-63
2022/03/22 14:32:34;;;;;;;28.80;5.72;;;;;;;;;;5023707;28;20360;-62
2022/03/22 14:37:44;;;;;;;10.48;4.97;;;;;;;;;;5017638;28;20034;-63
2022/03/22 14:40:11;;;;;;;7.10;4.15;;;;;;;;;;5013936;28;20040;-63
2022/03/22 14:42:37;;;;;;;16.05;5.20;;;;;;;;;;5010690;28;20034;-63
2022/03/22 14:45:07;;;;;;;15.32;4.60;;;;;;;;;;5017401;28;20491;-63
2022/03/22 14:47:34;;;;;;;19.10;5.38;;;;;;;;;;5013095;28;20029;-63
2022/03/22 14:49:59;;;;;;;20.35;5.03;;;;;;;;;;5018874;28;20034;-63
2022/03/22 14:55:10;;;;;;;14.13;4.70;;;;;;;;;;5022331;28;20399;-63
2022/03/22 15:00:20;;;;;;;11.82;4.82;;;;;;;;;;5017482;28;20026;-63
2022/03/22 15:02:46;;;;;;;12.25;4.65;;;;;;;;;;5018486;28;20056;-63
2022/03/22 15:07:56;;;;;;;12.27;4.95;;;;;;;;;;5024656;28;20030;-63
2022/03/22 15:10:23;;;;;;;14.60;4.68;;;;;;;;;;5025154;28;20076;-63
2022/03/22 15:12:50;;;;;;;13.60;4.65;;;;;;;;;;5017595;28;20478;-63
2022/03/22 15:15:17;;;;;;;16.10;4.88;;;;;;;;;;5020822;28;20037;-63
2022/03/22 15:17:43;;;;;;;7.35;3.97;;;;;;;;;;5017927;28;20122;-63
2022/03/22 15:20:09;;;;;;;9.45;4.45;;;;;;;;;;5022307;28;20037;-63
2022/03/22 15:22:37;;;;;;;11.75;5.10;;;;;;;;;;5019519;28;20059;-63
2022/03/22 15:25:03;;;;;;;18.73;4.57;;;;;;;;;;5021586;28;20029;-63
2022/03/22 15:27:29;;;;;;;14.05;5.85;;;;;;;;;;5022284;28;20032;-63